sensor_id;sensor_type;location;lat;lon;timestamp;P1;durP1;ratioP1;P2;durP2;ratioP2
10347;SDS011;5220;43.192;23.284;2023-12-29T00:01:55;6.57;;;4.75;;
10347;SDS011;5220;43.192;23.284;2023-12-29T00:04:23;18.13;;;10.18;;
10347;SDS011;5220;43.192;23.284;2023-12-29T00:06:49;14.98;;;8.23;;
10347;SDS011;5220;43.192;23.284;2023-12-29T00:09:16;16.85;;;9.10;;
10347;SDS011;5220;43.192;23.284;2023-12-29T00:11:44;13.87;;;8.03;;
10347;SDS011;5220;43.192;23.284;2023-12-29T00:14:11;8.70;;;6.13;;
10347;SDS011;5220;43.192;23.284;2023-12-29T00:16:38;4.23;;;2.07;;
10347;SDS011;5220;43.192;23.284;2023-12-29T00:19:05;6.32;;;3.75;;
10347;SDS011;5220;43.192;23.284;2023-12-29T00:21:33;10.30;;;5.20;;
10347;SDS011;5220;43.192;23.284;2023-12-29T00:23:59;3.03;;;2.20;;
10347;SDS011;5220;43.192;23.284;2023-12-29T00:26:26;3.60;;;2.30;;
10347;SDS011;5220;43.192;23.284;2023-12-29T00:28:53;6.23;;;3.87;;
10347;SDS011;5220;43.192;23.284;2023-12-29T00:31:20;4.03;;;2.85;;
10347;SDS011;5220;43.192;23.284;2023-12-29T00:33:47;3.92;;;3.30;;
10347;SDS011;5220;43.192;23.284;2023-12-29T00:36:16;13.85;;;6.45;;
10347;SDS011;5220;43.192;23.284;2023-12-29T00:38:45;22.63;;;10.23;;
10347;SDS011;5220;43.192;23.284;2023-12-29T00:41:11;25.27;;;13.67;;
10347;SDS011;5220;43.192;23.284;2023-12-29T00:43:38;22.20;;;12.80;;
10347;SDS011;5220;43.192;23.284;2023-12-29T00:46:05;27.17;;;16.40;;
10347;SDS011;5220;43.192;23.284;2023-12-29T00:48:32;27.23;;;14.80;;
10347;SDS011;5220;43.192;23.284;2023-12-29T00:51:00;15.53;;;9.97;;
10347;SDS011;5220;43.192;23.284;2023-12-29T00:53:27;15.13;;;8.80;;
10347;SDS011;5220;43.192;23.284;2023-12-29T00:55:55;15.87;;;7.63;;
10347;SDS011;5220;43.192;23.284;2023-12-29T00:58:22;8.03;;;5.50;;
10347;SDS011;5220;43.192;23.284;2023-12-29T01:00:49;8.30;;;5.20;;
10347;SDS011;5220;43.192;23.284;2023-12-29T01:03:15;10.73;;;5.63;;
10347;SDS011;5220;43.192;23.284;2023-12-29T01:05:42;3.80;;;3.13;;
10347;SDS011;5220;43.192;23.284;2023-12-29T01:08:09;3.30;;;2.40;;
10347;SDS011;5220;43.192;23.284;2023-12-29T01:10:36;4.53;;;3.10;;
10347;SDS011;5220;43.192;23.284;2023-12-29T01:13:04;4.73;;;2.80;;
10347;SDS011;5220;43.192;23.284;2023-12-29T01:15:31;4.77;;;3.43;;
10347;SDS011;5220;43.192;23.284;2023-12-29T01:17:57;9.27;;;6.07;;
10347;SDS011;5220;43.192;23.284;2023-12-29T01:20:24;9.63;;;8.20;;
10347;SDS011;5220;43.192;23.284;2023-12-29T01:22:51;7.17;;;5.33;;
10347;SDS011;5220;43.192;23.284;2023-12-29T01:25:17;5.57;;;4.07;;
10347;SDS011;5220;43.192;23.284;2023-12-29T01:27:44;5.43;;;3.47;;
10347;SDS011;5220;43.192;23.284;2023-12-29T01:30:12;5.90;;;3.40;;
10347;SDS011;5220;43.192;23.284;2023-12-29T01:32:39;3.83;;;2.67;;
10347;SDS011;5220;43.192;23.284;2023-12-29T01:35:06;2.67;;;2.37;;
10347;SDS011;5220;43.192;23.284;2023-12-29T01:37:33;5.13;;;3.30;;
10347;SDS011;5220;43.192;23.284;2023-12-29T01:39:59;4.17;;;3.27;;
10347;SDS011;5220;43.192;23.284;2023-12-29T01:42:26;4.87;;;3.03;;
10347;SDS011;5220;43.192;23.284;2023-12-29T01:44:53;5.53;;;2.50;;
10347;SDS011;5220;43.192;23.284;2023-12-29T01:47:21;3.40;;;1.70;;
10347;SDS011;5220;43.192;23.284;2023-12-29T01:49:48;2.40;;;2.00;;
10347;SDS011;5220;43.192;23.284;2023-12-29T01:52:16;4.57;;;3.37;;
10347;SDS011;5220;43.192;23.284;2023-12-29T01:54:44;5.23;;;3.33;;
10347;SDS011;5220;43.192;23.284;2023-12-29T01:57:13;3.17;;;2.23;;
10347;SDS011;5220;43.192;23.284;2023-12-29T01:59:40;2.57;;;2.00;;
10347;SDS011;5220;43.192;23.284;2023-12-29T02:02:08;2.90;;;2.40;;
10347;SDS011;5220;43.192;23.284;2023-12-29T02:04:37;4.17;;;3.20;;
10347;SDS011;5220;43.192;23.284;2023-12-29T02:07:06;5.23;;;3.60;;
10347;SDS011;5220;43.192;23.284;2023-12-29T02:09:33;5.40;;;3.47;;
10347;SDS011;5220;43.192;23.284;2023-12-29T02:12:00;6.30;;;3.43;;
10347;SDS011;5220;43.192;23.284;2023-12-29T02:14:28;6.15;;;2.90;;
10347;SDS011;5220;43.192;23.284;2023-12-29T02:16:57;3.03;;;2.13;;
10347;SDS011;5220;43.192;23.284;2023-12-29T02:19:38;2.97;;;2.00;;
10347;SDS011;5220;43.192;23.284;2023-12-29T02:22:07;2.13;;;1.93;;
10347;SDS011;5220;43.192;23.284;2023-12-29T02:24:34;2.25;;;2.05;;
10347;SDS011;5220;43.192;23.284;2023-12-29T02:27:05;2.00;;;1.80;;
10347;SDS011;5220;43.192;23.284;2023-12-29T02:29:38;4.47;;;2.73;;
10347;SDS011;5220;43.192;23.284;2023-12-29T02:32:09;3.13;;;2.07;;
10347;SDS011;5220;43.192;23.284;2023-12-29T02:34:40;4.77;;;3.03;;
10347;SDS011;5220;43.192;23.284;2023-12-29T02:37:07;2.17;;;1.97;;
10347;SDS011;5220;43.192;23.284;2023-12-29T02:39:35;3.33;;;1.93;;
10347;SDS011;5220;43.192;23.284;2023-12-29T02:42:03;3.90;;;1.97;;
10347;SDS011;5220;43.192;23.284;2023-12-29T02:44:31;2.47;;;1.83;;
10347;SDS011;5220;43.192;23.284;2023-12-29T02:46:58;2.47;;;2.10;;
10347;SDS011;5220;43.192;23.284;2023-12-29T02:49:25;1.77;;;1.67;;
10347;SDS011;5220;43.192;23.284;2023-12-29T02:51:52;6.10;;;2.50;;
10347;SDS011;5220;43.192;23.284;2023-12-29T02:54:19;2.60;;;1.90;;
10347;SDS011;5220;43.192;23.284;2023-12-29T02:56:45;3.07;;;2.30;;
10347;SDS011;5220;43.192;23.284;2023-12-29T02:59:13;4.30;;;2.67;;
10347;SDS011;5220;43.192;23.284;2023-12-29T03:01:40;2.40;;;2.20;;
10347;SDS011;5220;43.192;23.284;2023-12-29T03:04:07;2.87;;;2.27;;
10347;SDS011;5220;43.192;23.284;2023-12-29T03:06:34;5.00;;;2.13;;
10347;SDS011;5220;43.192;23.284;2023-12-29T03:09:00;7.80;;;2.53;;
10347;SDS011;5220;43.192;23.284;2023-12-29T03:11:27;3.47;;;2.70;;
10347;SDS011;5220;43.192;23.284;2023-12-29T03:13:54;4.53;;;2.70;;
10347;SDS011;5220;43.192;23.284;2023-12-29T03:16:22;4.23;;;2.80;;
10347;SDS011;5220;43.192;23.284;2023-12-29T03:18:49;3.37;;;2.90;;
10347;SDS011;5220;43.192;23.284;2023-12-29T03:21:15;4.80;;;2.90;;
10347;SDS011;5220;43.192;23.284;2023-12-29T03:23:42;4.17;;;3.03;;
10347;SDS011;5220;43.192;23.284;2023-12-29T03:26:09;3.50;;;2.40;;
10347;SDS011;5220;43.192;23.284;2023-12-29T03:28:35;3.30;;;2.20;;
10347;SDS011;5220;43.192;23.284;2023-12-29T03:31:02;3.27;;;2.53;;
10347;SDS011;5220;43.192;23.284;2023-12-29T03:33:31;3.60;;;2.63;;
10347;SDS011;5220;43.192;23.284;2023-12-29T03:35:58;3.50;;;2.63;;
10347;SDS011;5220;43.192;23.284;2023-12-29T03:38:25;2.33;;;2.03;;
10347;SDS011;5220;43.192;23.284;2023-12-29T03:40:51;4.43;;;2.23;;
10347;SDS011;5220;43.192;23.284;2023-12-29T03:43:18;3.47;;;2.80;;
10347;SDS011;5220;43.192;23.284;2023-12-29T03:45:45;3.63;;;2.90;;
10347;SDS011;5220;43.192;23.284;2023-12-29T03:48:12;2.10;;;1.90;;
10347;SDS011;5220;43.192;23.284;2023-12-29T03:50:40;2.30;;;1.67;;
10347;SDS011;5220;43.192;23.284;2023-12-29T03:53:06;1.10;;;1.00;;
10347;SDS011;5220;43.192;23.284;2023-12-29T03:55:33;1.10;;;1.10;;
10347;SDS011;5220;43.192;23.284;2023-12-29T03:57:59;1.80;;;1.40;;
10347;SDS011;5220;43.192;23.284;2023-12-29T04:00:28;2.53;;;1.40;;
10347;SDS011;5220;43.192;23.284;2023-12-29T04:02:54;1.63;;;1.53;;
10347;SDS011;5220;43.192;23.284;2023-12-29T04:05:21;1.57;;;1.47;;
10347;SDS011;5220;43.192;23.284;2023-12-29T04:07:49;1.90;;;1.70;;
10347;SDS011;5220;43.192;23.284;2023-12-29T04:10:16;2.13;;;1.43;;
10347;SDS011;5220;43.192;23.284;2023-12-29T04:12:42;1.53;;;1.33;;
10347;SDS011;5220;43.192;23.284;2023-12-29T04:15:10;1.40;;;1.30;;
10347;SDS011;5220;43.192;23.284;2023-12-29T04:17:36;1.60;;;1.50;;
10347;SDS011;5220;43.192;23.284;2023-12-29T04:20:03;5.30;;;3.83;;
10347;SDS011;5220;43.192;23.284;2023-12-29T04:22:31;6.23;;;5.13;;
10347;SDS011;5220;43.192;23.284;2023-12-29T04:25:00;6.87;;;5.07;;
10347;SDS011;5220;43.192;23.284;2023-12-29T04:27:27;6.50;;;4.50;;
10347;SDS011;5220;43.192;23.284;2023-12-29T04:29:53;5.83;;;3.60;;
10347;SDS011;5220;43.192;23.284;2023-12-29T04:32:20;4.20;;;3.40;;
10347;SDS011;5220;43.192;23.284;2023-12-29T04:34:47;3.53;;;2.50;;
10347;SDS011;5220;43.192;23.284;2023-12-29T04:37:13;2.17;;;2.03;;
10347;SDS011;5220;43.192;23.284;2023-12-29T04:39:40;3.43;;;2.57;;
10347;SDS011;5220;43.192;23.284;2023-12-29T04:42:08;4.13;;;3.73;;
10347;SDS011;5220;43.192;23.284;2023-12-29T04:44:35;9.30;;;3.80;;
10347;SDS011;5220;43.192;23.284;2023-12-29T04:47:02;5.83;;;5.23;;
10347;SDS011;5220;43.192;23.284;2023-12-29T04:49:29;9.70;;;7.20;;
10347;SDS011;5220;43.192;23.284;2023-12-29T04:51:55;10.77;;;7.37;;
10347;SDS011;5220;43.192;23.284;2023-12-29T04:54:22;11.00;;;6.43;;
10347;SDS011;5220;43.192;23.284;2023-12-29T04:56:50;8.63;;;5.83;;
10347;SDS011;5220;43.192;23.284;2023-12-29T04:59:18;8.53;;;5.73;;
10347;SDS011;5220;43.192;23.284;2023-12-29T05:01:45;7.23;;;5.13;;
10347;SDS011;5220;43.192;23.284;2023-12-29T05:04:12;7.63;;;5.50;;
10347;SDS011;5220;43.192;23.284;2023-12-29T05:06:39;7.13;;;4.60;;
10347;SDS011;5220;43.192;23.284;2023-12-29T05:09:06;8.40;;;4.13;;
10347;SDS011;5220;43.192;23.284;2023-12-29T05:11:33;5.63;;;4.57;;
10347;SDS011;5220;43.192;23.284;2023-12-29T05:14:00;6.80;;;4.87;;
10347;SDS011;5220;43.192;23.284;2023-12-29T05:16:28;5.90;;;4.47;;
10347;SDS011;5220;43.192;23.284;2023-12-29T05:18:54;8.90;;;5.80;;
10347;SDS011;5220;43.192;23.284;2023-12-29T05:21:21;6.83;;;5.30;;
10347;SDS011;5220;43.192;23.284;2023-12-29T05:23:49;6.77;;;4.27;;
10347;SDS011;5220;43.192;23.284;2023-12-29T05:26:16;6.03;;;4.30;;
10347;SDS011;5220;43.192;23.284;2023-12-29T05:28:42;6.23;;;5.30;;
10347;SDS011;5220;43.192;23.284;2023-12-29T05:31:09;10.50;;;7.47;;
10347;SDS011;5220;43.192;23.284;2023-12-29T05:33:37;11.13;;;7.37;;
10347;SDS011;5220;43.192;23.284;2023-12-29T05:36:07;7.70;;;5.20;;
10347;SDS011;5220;43.192;23.284;2023-12-29T05:38:35;5.43;;;4.17;;
10347;SDS011;5220;43.192;23.284;2023-12-29T05:41:02;7.67;;;6.00;;
10347;SDS011;5220;43.192;23.284;2023-12-29T05:43:30;9.67;;;6.67;;
10347;SDS011;5220;43.192;23.284;2023-12-29T05:45:58;12.67;;;7.27;;
10347;SDS011;5220;43.192;23.284;2023-12-29T05:48:25;4.63;;;3.90;;
10347;SDS011;5220;43.192;23.284;2023-12-29T05:50:53;4.10;;;3.40;;
10347;SDS011;5220;43.192;23.284;2023-12-29T05:53:20;6.20;;;4.70;;
10347;SDS011;5220;43.192;23.284;2023-12-29T05:55:46;5.67;;;4.63;;
10347;SDS011;5220;43.192;23.284;2023-12-29T05:58:13;10.97;;;7.03;;
10347;SDS011;5220;43.192;23.284;2023-12-29T06:00:40;14.30;;;9.37;;
10347;SDS011;5220;43.192;23.284;2023-12-29T06:03:07;29.47;;;18.77;;
10347;SDS011;5220;43.192;23.284;2023-12-29T06:05:33;12.70;;;9.07;;
10347;SDS011;5220;43.192;23.284;2023-12-29T06:08:02;14.30;;;10.00;;
10347;SDS011;5220;43.192;23.284;2023-12-29T06:10:29;16.50;;;10.33;;
10347;SDS011;5220;43.192;23.284;2023-12-29T06:12:56;13.30;;;7.90;;
10347;SDS011;5220;43.192;23.284;2023-12-29T06:15:23;9.27;;;6.43;;
10347;SDS011;5220;43.192;23.284;2023-12-29T06:17:49;7.63;;;5.70;;
10347;SDS011;5220;43.192;23.284;2023-12-29T06:20:16;6.97;;;5.40;;
10347;SDS011;5220;43.192;23.284;2023-12-29T06:22:43;8.10;;;5.67;;
10347;SDS011;5220;43.192;23.284;2023-12-29T06:25:11;12.50;;;9.03;;
10347;SDS011;5220;43.192;23.284;2023-12-29T06:27:38;18.13;;;12.37;;
10347;SDS011;5220;43.192;23.284;2023-12-29T06:30:06;27.53;;;16.93;;
10347;SDS011;5220;43.192;23.284;2023-12-29T06:32:33;37.63;;;21.27;;
10347;SDS011;5220;43.192;23.284;2023-12-29T06:35:00;39.37;;;20.40;;
10347;SDS011;5220;43.192;23.284;2023-12-29T06:37:28;26.30;;;14.63;;
10347;SDS011;5220;43.192;23.284;2023-12-29T06:39:54;28.37;;;13.87;;
10347;SDS011;5220;43.192;23.284;2023-12-29T06:42:22;21.17;;;10.80;;
10347;SDS011;5220;43.192;23.284;2023-12-29T06:44:49;25.17;;;13.37;;
10347;SDS011;5220;43.192;23.284;2023-12-29T06:47:16;24.07;;;13.40;;
10347;SDS011;5220;43.192;23.284;2023-12-29T06:49:43;28.53;;;15.87;;
10347;SDS011;5220;43.192;23.284;2023-12-29T06:52:10;20.70;;;13.73;;
10347;SDS011;5220;43.192;23.284;2023-12-29T06:54:35;23.73;;;13.03;;
10347;SDS011;5220;43.192;23.284;2023-12-29T06:57:02;12.90;;;8.47;;
10347;SDS011;5220;43.192;23.284;2023-12-29T06:59:31;26.53;;;14.60;;
10347;SDS011;5220;43.192;23.284;2023-12-29T07:01:57;19.40;;;10.97;;
10347;SDS011;5220;43.192;23.284;2023-12-29T07:04:24;18.23;;;11.33;;
10347;SDS011;5220;43.192;23.284;2023-12-29T07:06:51;12.13;;;8.93;;
10347;SDS011;5220;43.192;23.284;2023-12-29T07:09:18;11.13;;;7.30;;
10347;SDS011;5220;43.192;23.284;2023-12-29T07:11:47;7.83;;;6.90;;
10347;SDS011;5220;43.192;23.284;2023-12-29T07:14:14;11.83;;;8.97;;
10347;SDS011;5220;43.192;23.284;2023-12-29T07:16:42;9.43;;;7.27;;
10347;SDS011;5220;43.192;23.284;2023-12-29T07:19:10;6.60;;;5.10;;
10347;SDS011;5220;43.192;23.284;2023-12-29T07:21:36;5.67;;;3.27;;
10347;SDS011;5220;43.192;23.284;2023-12-29T07:24:03;3.77;;;3.17;;
10347;SDS011;5220;43.192;23.284;2023-12-29T07:26:32;4.53;;;2.90;;
10347;SDS011;5220;43.192;23.284;2023-12-29T07:28:59;8.68;;;3.35;;
10347;SDS011;5220;43.192;23.284;2023-12-29T07:31:25;3.53;;;2.63;;
10347;SDS011;5220;43.192;23.284;2023-12-29T07:33:53;7.80;;;2.90;;
10347;SDS011;5220;43.192;23.284;2023-12-29T07:36:21;6.77;;;3.50;;
10347;SDS011;5220;43.192;23.284;2023-12-29T07:38:48;3.58;;;3.00;;
10347;SDS011;5220;43.192;23.284;2023-12-29T07:41:14;4.75;;;2.97;;
10347;SDS011;5220;43.192;23.284;2023-12-29T07:43:42;6.10;;;5.00;;
10347;SDS011;5220;43.192;23.284;2023-12-29T07:46:08;3.70;;;2.78;;
10347;SDS011;5220;43.192;23.284;2023-12-29T07:48:35;4.72;;;3.20;;
10347;SDS011;5220;43.192;23.284;2023-12-29T07:51:05;3.80;;;2.95;;
10347;SDS011;5220;43.192;23.284;2023-12-29T07:53:32;4.28;;;2.88;;
10347;SDS011;5220;43.192;23.284;2023-12-29T07:55:58;6.15;;;4.60;;
10347;SDS011;5220;43.192;23.284;2023-12-29T07:58:25;3.88;;;3.35;;
10347;SDS011;5220;43.192;23.284;2023-12-29T08:00:52;2.80;;;2.40;;
10347;SDS011;5220;43.192;23.284;2023-12-29T08:03:19;3.58;;;2.88;;
10347;SDS011;5220;43.192;23.284;2023-12-29T08:05:45;11.05;;;6.07;;
10347;SDS011;5220;43.192;23.284;2023-12-29T08:08:13;14.77;;;9.65;;
10347;SDS011;5220;43.192;23.284;2023-12-29T08:10:40;10.07;;;7.72;;
10347;SDS011;5220;43.192;23.284;2023-12-29T08:13:07;15.60;;;11.40;;
10347;SDS011;5220;43.192;23.284;2023-12-29T08:15:34;23.33;;;16.52;;
10347;SDS011;5220;43.192;23.284;2023-12-29T08:18:02;20.50;;;14.50;;
10347;SDS011;5220;43.192;23.284;2023-12-29T08:20:29;13.95;;;10.40;;
10347;SDS011;5220;43.192;23.284;2023-12-29T08:22:56;6.38;;;4.25;;
10347;SDS011;5220;43.192;23.284;2023-12-29T08:25:24;11.50;;;9.07;;
10347;SDS011;5220;43.192;23.284;2023-12-29T08:27:51;11.88;;;7.22;;
10347;SDS011;5220;43.192;23.284;2023-12-29T08:30:17;9.15;;;6.95;;
10347;SDS011;5220;43.192;23.284;2023-12-29T08:32:44;11.02;;;7.68;;
10347;SDS011;5220;43.192;23.284;2023-12-29T08:35:11;8.90;;;4.90;;
10347;SDS011;5220;43.192;23.284;2023-12-29T08:37:38;15.05;;;8.90;;
10347;SDS011;5220;43.192;23.284;2023-12-29T08:40:05;13.30;;;7.43;;
10347;SDS011;5220;43.192;23.284;2023-12-29T08:42:35;29.77;;;19.20;;
10347;SDS011;5220;43.192;23.284;2023-12-29T08:45:02;34.85;;;21.95;;
10347;SDS011;5220;43.192;23.284;2023-12-29T08:47:30;30.77;;;18.55;;
10347;SDS011;5220;43.192;23.284;2023-12-29T08:49:56;29.52;;;17.67;;
10347;SDS011;5220;43.192;23.284;2023-12-29T08:52:23;58.08;;;33.20;;
10347;SDS011;5220;43.192;23.284;2023-12-29T08:54:49;34.38;;;23.23;;
10347;SDS011;5220;43.192;23.284;2023-12-29T08:57:16;48.83;;;30.75;;
10347;SDS011;5220;43.192;23.284;2023-12-29T08:59:44;73.85;;;47.78;;
10347;SDS011;5220;43.192;23.284;2023-12-29T09:02:11;37.00;;;23.27;;
10347;SDS011;5220;43.192;23.284;2023-12-29T09:04:38;36.67;;;24.85;;
10347;SDS011;5220;43.192;23.284;2023-12-29T09:07:04;43.85;;;29.50;;
10347;SDS011;5220;43.192;23.284;2023-12-29T09:09:31;41.30;;;26.30;;
10347;SDS011;5220;43.192;23.284;2023-12-29T09:11:58;132.60;;;75.93;;
10347;SDS011;5220;43.192;23.284;2023-12-29T09:14:24;90.88;;;55.60;;
10347;SDS011;5220;43.192;23.284;2023-12-29T09:16:52;51.97;;;33.72;;
10347;SDS011;5220;43.192;23.284;2023-12-29T09:19:19;25.65;;;16.83;;
10347;SDS011;5220;43.192;23.284;2023-12-29T09:21:46;18.48;;;13.40;;
10347;SDS011;5220;43.192;23.284;2023-12-29T09:24:12;45.75;;;24.45;;
10347;SDS011;5220;43.192;23.284;2023-12-29T09:26:39;18.80;;;13.02;;
10347;SDS011;5220;43.192;23.284;2023-12-29T09:29:06;13.23;;;7.55;;
10347;SDS011;5220;43.192;23.284;2023-12-29T09:31:32;23.67;;;15.35;;
10347;SDS011;5220;43.192;23.284;2023-12-29T09:34:00;14.70;;;9.25;;
10347;SDS011;5220;43.192;23.284;2023-12-29T09:36:27;11.02;;;7.25;;
10347;SDS011;5220;43.192;23.284;2023-12-29T09:38:54;10.52;;;7.35;;
10347;SDS011;5220;43.192;23.284;2023-12-29T09:41:21;10.50;;;5.43;;
10347;SDS011;5220;43.192;23.284;2023-12-29T09:43:50;10.85;;;5.90;;
10347;SDS011;5220;43.192;23.284;2023-12-29T09:46:17;22.40;;;12.82;;
10347;SDS011;5220;43.192;23.284;2023-12-29T09:48:45;11.48;;;6.93;;
10347;SDS011;5220;43.192;23.284;2023-12-29T09:51:14;14.80;;;8.27;;
10347;SDS011;5220;43.192;23.284;2023-12-29T09:53:41;11.63;;;6.70;;
10347;SDS011;5220;43.192;23.284;2023-12-29T09:56:08;11.32;;;7.38;;
10347;SDS011;5220;43.192;23.284;2023-12-29T09:58:35;9.82;;;6.25;;
10347;SDS011;5220;43.192;23.284;2023-12-29T10:01:03;11.40;;;6.57;;
10347;SDS011;5220;43.192;23.284;2023-12-29T10:03:31;8.93;;;5.88;;
10347;SDS011;5220;43.192;23.284;2023-12-29T10:06:00;11.07;;;7.18;;
10347;SDS011;5220;43.192;23.284;2023-12-29T10:08:31;18.65;;;8.50;;
10347;SDS011;5220;43.192;23.284;2023-12-29T10:11:00;9.70;;;6.00;;
10347;SDS011;5220;43.192;23.284;2023-12-29T10:13:28;10.40;;;5.18;;
10347;SDS011;5220;43.192;23.284;2023-12-29T10:15:58;10.55;;;5.70;;
10347;SDS011;5220;43.192;23.284;2023-12-29T10:18:37;11.10;;;6.82;;
10347;SDS011;5220;43.192;23.284;2023-12-29T10:21:12;18.08;;;8.75;;
10347;SDS011;5220;43.192;23.284;2023-12-29T10:23:49;22.98;;;17.00;;
10347;SDS011;5220;43.192;23.284;2023-12-29T10:26:19;15.60;;;9.50;;
10347;SDS011;5220;43.192;23.284;2023-12-29T10:28:46;14.95;;;9.02;;
10347;SDS011;5220;43.192;23.284;2023-12-29T10:31:14;8.13;;;5.30;;
10347;SDS011;5220;43.192;23.284;2023-12-29T10:33:42;8.10;;;5.38;;
10347;SDS011;5220;43.192;23.284;2023-12-29T10:36:08;9.88;;;6.85;;
10347;SDS011;5220;43.192;23.284;2023-12-29T10:38:38;10.40;;;5.38;;
10347;SDS011;5220;43.192;23.284;2023-12-29T10:41:11;10.43;;;5.65;;
10347;SDS011;5220;43.192;23.284;2023-12-29T10:43:39;8.00;;;5.55;;
10347;SDS011;5220;43.192;23.284;2023-12-29T10:46:07;13.13;;;6.70;;
10347;SDS011;5220;43.192;23.284;2023-12-29T10:48:35;7.53;;;5.78;;
10347;SDS011;5220;43.192;23.284;2023-12-29T10:51:02;14.25;;;7.65;;
10347;SDS011;5220;43.192;23.284;2023-12-29T10:53:30;11.95;;;7.53;;
10347;SDS011;5220;43.192;23.284;2023-12-29T10:55:57;12.30;;;7.43;;
10347;SDS011;5220;43.192;23.284;2023-12-29T10:58:25;10.05;;;7.40;;
10347;SDS011;5220;43.192;23.284;2023-12-29T11:00:54;10.85;;;7.72;;
10347;SDS011;5220;43.192;23.284;2023-12-29T11:03:21;11.88;;;5.55;;
10347;SDS011;5220;43.192;23.284;2023-12-29T11:05:48;10.52;;;7.32;;
10347;SDS011;5220;43.192;23.284;2023-12-29T11:08:15;12.63;;;6.68;;
10347;SDS011;5220;43.192;23.284;2023-12-29T11:10:42;11.30;;;6.53;;
10347;SDS011;5220;43.192;23.284;2023-12-29T11:13:10;13.38;;;6.78;;
10347;SDS011;5220;43.192;23.284;2023-12-29T11:15:40;11.05;;;6.18;;
10347;SDS011;5220;43.192;23.284;2023-12-29T11:18:10;8.18;;;5.28;;
10347;SDS011;5220;43.192;23.284;2023-12-29T11:20:39;12.63;;;5.50;;
10347;SDS011;5220;43.192;23.284;2023-12-29T11:23:07;6.78;;;4.78;;
10347;SDS011;5220;43.192;23.284;2023-12-29T11:25:36;10.52;;;4.85;;
10347;SDS011;5220;43.192;23.284;2023-12-29T11:28:03;6.88;;;5.10;;
10347;SDS011;5220;43.192;23.284;2023-12-29T11:30:33;9.20;;;5.70;;
10347;SDS011;5220;43.192;23.284;2023-12-29T11:33:02;8.80;;;5.85;;
10347;SDS011;5220;43.192;23.284;2023-12-29T11:35:37;9.27;;;5.55;;
10347;SDS011;5220;43.192;23.284;2023-12-29T11:38:22;6.07;;;4.78;;
10347;SDS011;5220;43.192;23.284;2023-12-29T11:40:57;8.32;;;4.80;;
10347;SDS011;5220;43.192;23.284;2023-12-29T11:43:32;11.15;;;4.68;;
10347;SDS011;5220;43.192;23.284;2023-12-29T11:45:59;10.18;;;4.50;;
10347;SDS011;5220;43.192;23.284;2023-12-29T11:51:31;7.20;;;5.45;;
10347;SDS011;5220;43.192;23.284;2023-12-29T11:53:59;10.07;;;4.80;;
10347;SDS011;5220;43.192;23.284;2023-12-29T11:56:33;6.55;;;4.63;;
10347;SDS011;5220;43.192;23.284;2023-12-29T11:59:13;9.18;;;7.18;;
10347;SDS011;5220;43.192;23.284;2023-12-29T12:01:41;7.22;;;5.30;;
10347;SDS011;5220;43.192;23.284;2023-12-29T12:07:07;9.68;;;7.28;;
10347;SDS011;5220;43.192;23.284;2023-12-29T12:09:34;10.07;;;7.47;;
10347;SDS011;5220;43.192;23.284;2023-12-29T12:12:01;11.65;;;6.50;;
10347;SDS011;5220;43.192;23.284;2023-12-29T12:14:43;10.75;;;5.78;;
10347;SDS011;5220;43.192;23.284;2023-12-29T12:17:10;8.13;;;5.18;;
10347;SDS011;5220;43.192;23.284;2023-12-29T12:19:39;6.72;;;5.13;;
10347;SDS011;5220;43.192;23.284;2023-12-29T12:22:05;10.35;;;5.25;;
10347;SDS011;5220;43.192;23.284;2023-12-29T12:24:34;11.50;;;5.85;;
10347;SDS011;5220;43.192;23.284;2023-12-29T12:27:02;8.15;;;5.88;;
10347;SDS011;5220;43.192;23.284;2023-12-29T12:29:29;7.68;;;5.25;;
10347;SDS011;5220;43.192;23.284;2023-12-29T12:31:56;10.23;;;7.03;;
10347;SDS011;5220;43.192;23.284;2023-12-29T12:34:23;8.05;;;6.00;;
10347;SDS011;5220;43.192;23.284;2023-12-29T12:36:53;13.52;;;9.18;;
10347;SDS011;5220;43.192;23.284;2023-12-29T12:39:21;13.18;;;10.23;;
10347;SDS011;5220;43.192;23.284;2023-12-29T12:41:48;11.95;;;7.80;;
10347;SDS011;5220;43.192;23.284;2023-12-29T12:44:15;11.57;;;8.45;;
10347;SDS011;5220;43.192;23.284;2023-12-29T12:46:44;12.75;;;7.72;;
10347;SDS011;5220;43.192;23.284;2023-12-29T12:49:16;13.23;;;8.10;;
10347;SDS011;5220;43.192;23.284;2023-12-29T12:51:43;9.40;;;5.50;;
10347;SDS011;5220;43.192;23.284;2023-12-29T12:54:12;7.47;;;5.50;;
10347;SDS011;5220;43.192;23.284;2023-12-29T12:56:43;15.13;;;7.38;;
10347;SDS011;5220;43.192;23.284;2023-12-29T12:59:10;11.10;;;5.82;;
10347;SDS011;5220;43.192;23.284;2023-12-29T13:01:38;6.25;;;5.38;;
10347;SDS011;5220;43.192;23.284;2023-12-29T13:04:05;8.80;;;5.45;;
10347;SDS011;5220;43.192;23.284;2023-12-29T13:06:34;8.68;;;5.72;;
10347;SDS011;5220;43.192;23.284;2023-12-29T13:09:05;8.68;;;5.28;;
10347;SDS011;5220;43.192;23.284;2023-12-29T13:11:37;12.57;;;5.95;;
10347;SDS011;5220;43.192;23.284;2023-12-29T13:14:05;7.28;;;5.13;;
10347;SDS011;5220;43.192;23.284;2023-12-29T13:16:33;8.85;;;5.53;;
10347;SDS011;5220;43.192;23.284;2023-12-29T13:21:45;11.15;;;6.45;;
10347;SDS011;5220;43.192;23.284;2023-12-29T13:24:13;10.23;;;6.35;;
10347;SDS011;5220;43.192;23.284;2023-12-29T13:26:43;8.05;;;5.00;;
10347;SDS011;5220;43.192;23.284;2023-12-29T13:29:12;9.35;;;6.28;;
10347;SDS011;5220;43.192;23.284;2023-12-29T13:31:39;11.23;;;5.80;;
10347;SDS011;5220;43.192;23.284;2023-12-29T13:34:11;16.38;;;8.70;;
10347;SDS011;5220;43.192;23.284;2023-12-29T13:36:43;13.02;;;7.60;;
10347;SDS011;5220;43.192;23.284;2023-12-29T13:39:20;8.55;;;6.93;;
10347;SDS011;5220;43.192;23.284;2023-12-29T13:41:54;12.95;;;8.07;;
10347;SDS011;5220;43.192;23.284;2023-12-29T13:44:21;10.18;;;7.43;;
10347;SDS011;5220;43.192;23.284;2023-12-29T13:46:51;13.32;;;7.78;;
10347;SDS011;5220;43.192;23.284;2023-12-29T13:49:19;11.20;;;7.60;;
10347;SDS011;5220;43.192;23.284;2023-12-29T13:51:46;11.23;;;8.05;;
10347;SDS011;5220;43.192;23.284;2023-12-29T13:54:13;11.77;;;8.55;;
10347;SDS011;5220;43.192;23.284;2023-12-29T13:56:50;11.93;;;7.63;;
10347;SDS011;5220;43.192;23.284;2023-12-29T13:59:18;12.55;;;7.57;;
10347;SDS011;5220;43.192;23.284;2023-12-29T14:01:45;12.45;;;9.02;;
10347;SDS011;5220;43.192;23.284;2023-12-29T14:04:12;18.23;;;9.52;;
10347;SDS011;5220;43.192;23.284;2023-12-29T14:06:49;22.02;;;12.57;;
10347;SDS011;5220;43.192;23.284;2023-12-29T14:09:18;22.08;;;10.73;;
10347;SDS011;5220;43.192;23.284;2023-12-29T14:11:46;19.08;;;9.85;;
10347;SDS011;5220;43.192;23.284;2023-12-29T14:14:13;11.85;;;7.47;;
10347;SDS011;5220;43.192;23.284;2023-12-29T14:16:41;11.48;;;8.23;;
10347;SDS011;5220;43.192;23.284;2023-12-29T14:19:08;14.77;;;8.90;;
10347;SDS011;5220;43.192;23.284;2023-12-29T14:21:35;16.60;;;9.60;;
10347;SDS011;5220;43.192;23.284;2023-12-29T14:24:07;12.32;;;8.50;;
10347;SDS011;5220;43.192;23.284;2023-12-29T14:26:35;13.32;;;10.23;;
10347;SDS011;5220;43.192;23.284;2023-12-29T14:29:05;13.52;;;7.47;;
10347;SDS011;5220;43.192;23.284;2023-12-29T14:31:34;24.75;;;14.95;;
10347;SDS011;5220;43.192;23.284;2023-12-29T14:34:04;17.38;;;11.27;;
10347;SDS011;5220;43.192;23.284;2023-12-29T14:36:31;12.10;;;7.32;;
10347;SDS011;5220;43.192;23.284;2023-12-29T14:38:58;11.52;;;6.88;;
10347;SDS011;5220;43.192;23.284;2023-12-29T14:41:24;10.93;;;6.50;;
10347;SDS011;5220;43.192;23.284;2023-12-29T14:43:51;12.30;;;8.30;;
10347;SDS011;5220;43.192;23.284;2023-12-29T14:46:18;19.15;;;8.77;;
10347;SDS011;5220;43.192;23.284;2023-12-29T14:48:45;16.23;;;9.13;;
10347;SDS011;5220;43.192;23.284;2023-12-29T14:51:13;15.57;;;10.85;;